Flight Track Log - Related Links

Times and Time Zones

All times are in EDT time to prevent confusion due to time zone crossing. See the PDT4207 flight status page for this flight to view local times or setup timezone preferences in your user account.

Time Position Orientation Groundspeed Altitude Reporting Facility
EDT Latitude Longitude Course Direction KTS MPH feet Rate Location/Type
Sun 09:30:14 PM 39.9000 -75.2333 339° North 111 128 800  Level Philadelphia TRACON
Sun 09:31:20 PM 39.9333 -75.2500 339° North 128 147 2,500 1,350 Climbing Philadelphia TRACON
Sun 09:32:14 PM 39.9667 -75.2500 360° North 165 190 3,500 789 Climbing Philadelphia TRACON
Sun 09:33:14 PM 40.0167 -75.2500 360° North 201 231 4,000 236 Climbing Philadelphia TRACON
Sun 09:34:21 PM 40.0833 -75.2833 339° North 210 242 4,000  Level Philadelphia TRACON
Sun 09:35:15 PM 40.1333 -75.3000 346° North 214 246 4,000  Level Philadelphia TRACON
Sun 09:36:21 PM 40.2000 -75.3167 349° North 216 249 4,000  Level Philadelphia TRACON
Sun 09:37:21 PM 40.2500 -75.3333 346° North 214 246 4,000  Level Philadelphia TRACON
Sun 09:38:15 PM 40.3000 -75.3500 346° North 215 247 4,000  Level Philadelphia TRACON
Sun 09:40:00 PM 40.4182 -75.3763 350° North  Level FlightAware Approximate
Sun 09:47:00 PM 40.8924 -75.4500 North  Level FlightAware Approximate
Sun 09:48:00 PM 40.9608 -75.4500 North  Level FlightAware Approximate
Sun 09:49:00 PM 41.0293 -75.4500 North  Level FlightAware Approximate
Sun 09:50:00 PM 41.0977 -75.4549 357° North  Level FlightAware Approximate
Sun 09:51:00 PM 41.1661 -75.4602 357° North  Level FlightAware Approximate
Sun 09:52:00 PM 41.2345 -75.4655 357° North  Level FlightAware Approximate
Sun 09:53:00 PM 41.3029 -75.4667 North  Level FlightAware Approximate
Sun 09:54:00 PM 41.3714 -75.4667 North  Level FlightAware Approximate
Sun 09:55:00 PM 41.4399 -75.4667 North  Level FlightAware Approximate
Sun 09:56:00 PM 41.5001 -75.4999 323° Northwest  Level FlightAware Approximate
Sun 09:57:00 PM 41.5550 -75.5547 323° Northwest  Level FlightAware Approximate
Sun 09:58:00 PM 41.6098 -75.6095 323° Northwest  Level FlightAware Approximate
Sun 09:59:00 PM 41.6646 -75.6645 323° Northwest  Level FlightAware Approximate
Sun 10:00:00 PM 41.7195 -75.7193 326° Northwest  Level FlightAware Approximate
Sun 10:01:00 PM 41.7760 -75.7712 326° Northwest  Level FlightAware Approximate
Sun 10:02:00 PM 41.8324 -75.8233 326° Northwest  Level FlightAware Approximate
Sun 10:03:00 PM 41.8888 -75.8754 325° Northwest  Level FlightAware Approximate
Sun 10:04:00 PM 41.9449 -75.9282 323° Northwest  Level FlightAware Approximate
Sun 10:05:00 PM 41.9999 -75.9831 323° Northwest  Level FlightAware Approximate
Sun 10:06:00 PM 42.0549 -76.0381 323° Northwest  Level FlightAware Approximate
Sun 10:07:00 PM 42.1098 -76.0931 323° Northwest  Level FlightAware Approximate
Sun 10:08:00 PM 42.1500 -76.1084 90° East  Level FlightAware Approximate
Sun 10:09:00 PM 42.1864 -76.0341 62° Northeast  Level FlightAware Approximate
Sun 10:10:00 PM 42.2000 -75.9667 90° East  Level FlightAware Approximate
Sun 10:11:00 PM 42.2084 -75.9796 90° East  Level Estimated
Sun 10:12:00 PM 42.2084 -75.9796 90° East  Level Estimated
Sun 10:13:00 PM 42.2084 -75.9796 90° East  Level Estimated
Sun 10:14:00 PM 42.2084 -75.9796 90° East  Level Estimated
Sun 10:15:00 PM 42.2084 -75.9796 90° East  Level Estimated
Sun 10:16:00 PM 42.2084 -75.9796 90° East  Level Estimated
Sun 10:17:00 PM 42.2084 -75.9796 90° East  Level Estimated

Login

Don't have an account? Register now (free) for customized features, flight alerts, and more!